sensor_id;sensor_type;location;lat;lon;timestamp;temperature;humidity
66522;SHT31;53349;53.538;8.584;2023-08-20T00:02:23;20.10;79.18
66522;SHT31;53349;53.538;8.584;2023-08-20T00:04:50;20.06;79.31
66522;SHT31;53349;53.538;8.584;2023-08-20T00:07:16;20.01;79.46
66522;SHT31;53349;53.538;8.584;2023-08-20T00:09:42;19.97;79.66
66522;SHT31;53349;53.538;8.584;2023-08-20T00:12:07;19.90;79.86
66522;SHT31;53349;53.538;8.584;2023-08-20T00:14:56;19.87;79.94
66522;SHT31;53349;53.538;8.584;2023-08-20T00:17:22;19.87;80.03
66522;SHT31;53349;53.538;8.584;2023-08-20T00:19:49;19.81;80.29
66522;SHT31;53349;53.538;8.584;2023-08-20T00:22:15;19.81;80.46
66522;SHT31;53349;53.538;8.584;2023-08-20T00:24:40;19.70;80.55
66522;SHT31;53349;53.538;8.584;2023-08-20T00:27:06;19.66;80.64
66522;SHT31;53349;53.538;8.584;2023-08-20T00:29:31;19.59;80.62
66522;SHT31;53349;53.538;8.584;2023-08-20T00:31:57;19.63;80.62
66522;SHT31;53349;53.538;8.584;2023-08-20T00:34:24;19.63;80.24
66522;SHT31;53349;53.538;8.584;2023-08-20T00:36:49;19.56;80.22
66522;SHT31;53349;53.538;8.584;2023-08-20T00:39:14;19.56;80.35
66522;SHT31;53349;53.538;8.584;2023-08-20T00:41:40;19.56;80.31
66522;SHT31;53349;53.538;8.584;2023-08-20T00:44:06;19.53;80.61
66522;SHT31;53349;53.538;8.584;2023-08-20T00:46:32;19.45;80.93
66522;SHT31;53349;53.538;8.584;2023-08-20T00:48:57;19.46;80.84
66522;SHT31;53349;53.538;8.584;2023-08-20T00:51:23;19.42;80.90
66522;SHT31;53349;53.538;8.584;2023-08-20T00:53:48;19.47;80.78
66522;SHT31;53349;53.538;8.584;2023-08-20T00:56:16;19.47;80.73
66522;SHT31;53349;53.538;8.584;2023-08-20T00:58:42;19.45;80.72
66522;SHT31;53349;53.538;8.584;2023-08-20T01:01:11;19.45;80.47
66522;SHT31;53349;53.538;8.584;2023-08-20T01:03:36;19.47;80.35
66522;SHT31;53349;53.538;8.584;2023-08-20T01:12:44;19.39;79.75
66522;SHT31;53349;53.538;8.584;2023-08-20T01:15:10;19.33;79.84
66522;SHT31;53349;53.538;8.584;2023-08-20T01:17:37;19.25;79.81
66522;SHT31;53349;53.538;8.584;2023-08-20T01:20:02;19.26;79.84
66522;SHT31;53349;53.538;8.584;2023-08-20T01:26:02;19.22;79.72
66522;SHT31;53349;53.538;8.584;2023-08-20T01:28:39;19.18;79.74
66522;SHT31;53349;53.538;8.584;2023-08-20T01:31:13;19.16;79.69
66522;SHT31;53349;53.538;8.584;2023-08-20T01:33:40;19.18;79.76
66522;SHT31;53349;53.538;8.584;2023-08-20T01:36:07;19.15;79.93
66522;SHT31;53349;53.538;8.584;2023-08-20T01:38:35;19.15;79.88
66522;SHT31;53349;53.538;8.584;2023-08-20T01:41:01;19.14;79.98
66522;SHT31;53349;53.538;8.584;2023-08-20T01:43:27;19.09;79.95
66522;SHT31;53349;53.538;8.584;2023-08-20T01:45:52;19.11;79.94
66522;SHT31;53349;53.538;8.584;2023-08-20T01:48:17;19.09;79.87
66522;SHT31;53349;53.538;8.584;2023-08-20T01:50:45;19.07;79.79
66522;SHT31;53349;53.538;8.584;2023-08-20T01:53:11;19.05;79.52
66522;SHT31;53349;53.538;8.584;2023-08-20T01:55:37;19.05;79.66
66522;SHT31;53349;53.538;8.584;2023-08-20T01:58:03;19.05;79.52
66522;SHT31;53349;53.538;8.584;2023-08-20T02:00:29;18.95;79.64
66522;SHT31;53349;53.538;8.584;2023-08-20T02:02:56;18.99;79.40
66522;SHT31;53349;53.538;8.584;2023-08-20T02:05:22;19.01;79.27
66522;SHT31;53349;53.538;8.584;2023-08-20T02:07:48;18.99;79.05
66522;SHT31;53349;53.538;8.584;2023-08-20T02:10:13;18.92;79.09
66522;SHT31;53349;53.538;8.584;2023-08-20T02:12:40;18.92;79.32
66522;SHT31;53349;53.538;8.584;2023-08-20T02:15:06;18.94;79.21
66522;SHT31;53349;53.538;8.584;2023-08-20T02:17:32;18.94;79.04
66522;SHT31;53349;53.538;8.584;2023-08-20T02:19:57;18.94;79.12
66522;SHT31;53349;53.538;8.584;2023-08-20T02:22:23;18.91;78.94
66522;SHT31;53349;53.538;8.584;2023-08-20T02:24:50;18.85;78.84
66522;SHT31;53349;53.538;8.584;2023-08-20T02:27:16;18.84;78.78
66522;SHT31;53349;53.538;8.584;2023-08-20T02:29:41;18.87;78.91
66522;SHT31;53349;53.538;8.584;2023-08-20T02:32:06;18.84;78.78
66522;SHT31;53349;53.538;8.584;2023-08-20T02:34:33;18.84;78.86
66522;SHT31;53349;53.538;8.584;2023-08-20T02:36:59;18.74;78.60
66522;SHT31;53349;53.538;8.584;2023-08-20T02:39:24;18.72;78.71
66522;SHT31;53349;53.538;8.584;2023-08-20T02:41:49;18.65;78.70
66522;SHT31;53349;53.538;8.584;2023-08-20T02:44:16;18.68;78.67
66522;SHT31;53349;53.538;8.584;2023-08-20T02:46:42;18.63;78.75
66522;SHT31;53349;53.538;8.584;2023-08-20T02:49:07;18.60;78.72
66522;SHT31;53349;53.538;8.584;2023-08-20T02:51:32;18.61;78.71
66522;SHT31;53349;53.538;8.584;2023-08-20T02:53:59;18.57;78.93
66522;SHT31;53349;53.538;8.584;2023-08-20T02:56:25;18.53;79.02
66522;SHT31;53349;53.538;8.584;2023-08-20T02:58:52;18.57;78.95
66522;SHT31;53349;53.538;8.584;2023-08-20T03:01:22;18.50;78.94
66522;SHT31;53349;53.538;8.584;2023-08-20T03:03:48;18.54;78.89
66522;SHT31;53349;53.538;8.584;2023-08-20T03:06:13;18.50;78.71
66522;SHT31;53349;53.538;8.584;2023-08-20T03:08:39;18.44;78.87
66522;SHT31;53349;53.538;8.584;2023-08-20T03:11:04;18.48;78.77
66522;SHT31;53349;53.538;8.584;2023-08-20T03:13:30;18.41;78.63
66522;SHT31;53349;53.538;8.584;2023-08-20T03:15:55;18.43;78.66
66522;SHT31;53349;53.538;8.584;2023-08-20T03:18:21;18.40;78.72
66522;SHT31;53349;53.538;8.584;2023-08-20T03:20:46;18.37;78.72
66522;SHT31;53349;53.538;8.584;2023-08-20T03:23:14;18.36;78.78
66522;SHT31;53349;53.538;8.584;2023-08-20T03:25:40;18.32;78.79
66522;SHT31;53349;53.538;8.584;2023-08-20T03:28:06;18.30;79.05
66522;SHT31;53349;53.538;8.584;2023-08-20T03:30:31;18.36;79.04
66522;SHT31;53349;53.538;8.584;2023-08-20T03:32:57;18.26;79.18
66522;SHT31;53349;53.538;8.584;2023-08-20T03:35:22;18.25;79.22
66522;SHT31;53349;53.538;8.584;2023-08-20T03:37:48;18.23;79.09
66522;SHT31;53349;53.538;8.584;2023-08-20T03:40:13;18.30;79.13
66522;SHT31;53349;53.538;8.584;2023-08-20T03:42:39;18.33;78.98
66522;SHT31;53349;53.538;8.584;2023-08-20T03:45:06;18.33;78.98
66522;SHT31;53349;53.538;8.584;2023-08-20T03:47:31;18.29;78.82
66522;SHT31;53349;53.538;8.584;2023-08-20T03:49:57;18.32;78.75
66522;SHT31;53349;53.538;8.584;2023-08-20T03:52:25;18.33;78.63
66522;SHT31;53349;53.538;8.584;2023-08-20T03:54:51;18.33;78.53
66522;SHT31;53349;53.538;8.584;2023-08-20T03:57:16;18.27;78.56
66522;SHT31;53349;53.538;8.584;2023-08-20T03:59:42;18.27;78.72
66522;SHT31;53349;53.538;8.584;2023-08-20T04:02:08;18.27;78.67
66522;SHT31;53349;53.538;8.584;2023-08-20T04:04:33;18.25;78.60
66522;SHT31;53349;53.538;8.584;2023-08-20T04:06:59;18.16;78.72
66522;SHT31;53349;53.538;8.584;2023-08-20T04:09:25;18.09;78.78
66522;SHT31;53349;53.538;8.584;2023-08-20T04:11:51;17.99;78.96
66522;SHT31;53349;53.538;8.584;2023-08-20T04:14:16;17.95;79.23
66522;SHT31;53349;53.538;8.584;2023-08-20T04:16:42;17.93;79.17
66522;SHT31;53349;53.538;8.584;2023-08-20T04:19:09;17.85;79.26
66522;SHT31;53349;53.538;8.584;2023-08-20T04:21:36;17.85;79.32
66522;SHT31;53349;53.538;8.584;2023-08-20T04:24:02;17.82;79.18
66522;SHT31;53349;53.538;8.584;2023-08-20T04:26:28;17.76;79.40
66522;SHT31;53349;53.538;8.584;2023-08-20T04:28:53;17.69;79.47
66522;SHT31;53349;53.538;8.584;2023-08-20T04:31:18;17.64;79.55
66522;SHT31;53349;53.538;8.584;2023-08-20T04:33:45;17.62;79.44
66522;SHT31;53349;53.538;8.584;2023-08-20T04:36:11;17.64;79.38
66522;SHT31;53349;53.538;8.584;2023-08-20T04:38:36;17.57;79.49
66522;SHT31;53349;53.538;8.584;2023-08-20T04:41:02;17.57;79.40
66522;SHT31;53349;53.538;8.584;2023-08-20T04:43:27;17.59;79.33
66522;SHT31;53349;53.538;8.584;2023-08-20T04:45:53;17.58;79.33
66522;SHT31;53349;53.538;8.584;2023-08-20T04:48:18;17.55;79.36
66522;SHT31;53349;53.538;8.584;2023-08-20T04:50:43;17.54;79.44
66522;SHT31;53349;53.538;8.584;2023-08-20T04:53:10;17.58;79.39
66522;SHT31;53349;53.538;8.584;2023-08-20T04:55:36;17.61;79.34
66522;SHT31;53349;53.538;8.584;2023-08-20T04:58:02;17.58;79.36
66522;SHT31;53349;53.538;8.584;2023-08-20T05:00:28;17.55;79.40
66522;SHT31;53349;53.538;8.584;2023-08-20T05:02:54;17.61;79.26
66522;SHT31;53349;53.538;8.584;2023-08-20T05:05:19;17.64;79.22
66522;SHT31;53349;53.538;8.584;2023-08-20T05:07:44;17.65;79.12
66522;SHT31;53349;53.538;8.584;2023-08-20T05:10:10;17.72;78.99
66522;SHT31;53349;53.538;8.584;2023-08-20T05:12:36;17.75;78.96
66522;SHT31;53349;53.538;8.584;2023-08-20T05:15:02;17.83;78.77
66522;SHT31;53349;53.538;8.584;2023-08-20T05:17:27;17.92;78.70
66522;SHT31;53349;53.538;8.584;2023-08-20T05:19:53;18.00;78.56
66522;SHT31;53349;53.538;8.584;2023-08-20T05:22:19;18.07;78.59
66522;SHT31;53349;53.538;8.584;2023-08-20T05:24:47;18.17;78.35
66522;SHT31;53349;53.538;8.584;2023-08-20T05:27:20;18.30;78.23
66522;SHT31;53349;53.538;8.584;2023-08-20T05:29:50;18.27;78.22
66522;SHT31;53349;53.538;8.584;2023-08-20T05:32:17;18.26;78.23
66522;SHT31;53349;53.538;8.584;2023-08-20T05:34:44;18.37;78.13
66522;SHT31;53349;53.538;8.584;2023-08-20T05:37:10;18.33;78.15
66522;SHT31;53349;53.538;8.584;2023-08-20T05:39:41;18.37;78.18
66522;SHT31;53349;53.538;8.584;2023-08-20T05:42:07;18.36;78.23
66522;SHT31;53349;53.538;8.584;2023-08-20T05:44:32;18.43;78.14
66522;SHT31;53349;53.538;8.584;2023-08-20T05:46:58;18.46;78.14
66522;SHT31;53349;53.538;8.584;2023-08-20T05:49:23;18.51;78.07
66522;SHT31;53349;53.538;8.584;2023-08-20T05:51:48;18.44;78.06
66522;SHT31;53349;53.538;8.584;2023-08-20T05:54:14;18.46;78.09
66522;SHT31;53349;53.538;8.584;2023-08-20T05:56:40;18.48;78.06
66522;SHT31;53349;53.538;8.584;2023-08-20T05:59:06;18.56;78.06
66522;SHT31;53349;53.538;8.584;2023-08-20T06:01:33;18.63;77.70
66522;SHT31;53349;53.538;8.584;2023-08-20T06:03:58;18.64;77.73
66522;SHT31;53349;53.538;8.584;2023-08-20T06:06:24;18.65;77.54
66522;SHT31;53349;53.538;8.584;2023-08-20T06:08:49;18.83;77.51
66522;SHT31;53349;53.538;8.584;2023-08-20T06:11:15;18.88;77.34
66522;SHT31;53349;53.538;8.584;2023-08-20T06:13:40;19.02;77.02
66522;SHT31;53349;53.538;8.584;2023-08-20T06:16:09;19.11;76.49
66522;SHT31;53349;53.538;8.584;2023-08-20T06:18:35;19.25;76.20
66522;SHT31;53349;53.538;8.584;2023-08-20T06:21:01;19.42;75.89
66522;SHT31;53349;53.538;8.584;2023-08-20T06:23:26;19.66;75.31
66522;SHT31;53349;53.538;8.584;2023-08-20T06:25:53;19.86;74.85
66522;SHT31;53349;53.538;8.584;2023-08-20T06:28:19;20.18;74.22
66522;SHT31;53349;53.538;8.584;2023-08-20T06:30:46;20.51;73.41
66522;SHT31;53349;53.538;8.584;2023-08-20T06:33:11;20.88;72.61
66522;SHT31;53349;53.538;8.584;2023-08-20T06:35:41;21.22;71.54
66522;SHT31;53349;53.538;8.584;2023-08-20T06:38:07;21.58;70.73
66522;SHT31;53349;53.538;8.584;2023-08-20T06:40:32;21.99;69.93
66522;SHT31;53349;53.538;8.584;2023-08-20T06:42:58;22.39;68.79
66522;SHT31;53349;53.538;8.584;2023-08-20T06:45:26;22.81;68.00
66522;SHT31;53349;53.538;8.584;2023-08-20T06:47:51;23.22;67.33
66522;SHT31;53349;53.538;8.584;2023-08-20T06:50:16;23.47;66.13
66522;SHT31;53349;53.538;8.584;2023-08-20T06:52:42;23.69;65.36
66522;SHT31;53349;53.538;8.584;2023-08-20T06:55:08;23.95;64.87
66522;SHT31;53349;53.538;8.584;2023-08-20T06:57:33;23.65;64.74
66522;SHT31;53349;53.538;8.584;2023-08-20T06:59:59;23.68;65.17
66522;SHT31;53349;53.538;8.584;2023-08-20T07:02:24;23.89;64.84
66522;SHT31;53349;53.538;8.584;2023-08-20T07:04:50;23.92;64.83
66522;SHT31;53349;53.538;8.584;2023-08-20T07:07:16;23.97;64.51
66522;SHT31;53349;53.538;8.584;2023-08-20T07:09:41;23.97;64.57
66522;SHT31;53349;53.538;8.584;2023-08-20T07:12:08;24.03;64.57
66522;SHT31;53349;53.538;8.584;2023-08-20T07:14:33;24.00;64.83
66522;SHT31;53349;53.538;8.584;2023-08-20T07:16:59;24.07;64.74
66522;SHT31;53349;53.538;8.584;2023-08-20T07:19:26;24.14;64.76
66522;SHT31;53349;53.538;8.584;2023-08-20T07:21:51;24.06;64.74
66522;SHT31;53349;53.538;8.584;2023-08-20T07:24:16;24.13;64.90
66522;SHT31;53349;53.538;8.584;2023-08-20T07:26:42;24.14;64.92
66522;SHT31;53349;53.538;8.584;2023-08-20T07:29:07;24.18;64.97
66522;SHT31;53349;53.538;8.584;2023-08-20T07:31:33;24.20;64.82
66522;SHT31;53349;53.538;8.584;2023-08-20T07:34:00;24.12;64.89
66522;SHT31;53349;53.538;8.584;2023-08-20T07:36:26;23.95;65.64
66522;SHT31;53349;53.538;8.584;2023-08-20T07:38:53;23.92;65.75
66522;SHT31;53349;53.538;8.584;2023-08-20T07:41:21;24.05;65.09
66522;SHT31;53349;53.538;8.584;2023-08-20T07:43:48;24.26;65.01
66522;SHT31;53349;53.538;8.584;2023-08-20T07:46:14;24.50;64.34
66522;SHT31;53349;53.538;8.584;2023-08-20T07:48:40;24.58;63.59
66522;SHT31;53349;53.538;8.584;2023-08-20T07:51:06;24.37;64.22
66522;SHT31;53349;53.538;8.584;2023-08-20T07:53:32;24.26;64.58
66522;SHT31;53349;53.538;8.584;2023-08-20T07:55:58;24.10;64.89
66522;SHT31;53349;53.538;8.584;2023-08-20T07:58:24;23.86;64.93
66522;SHT31;53349;53.538;8.584;2023-08-20T08:00:50;23.80;65.31
66522;SHT31;53349;53.538;8.584;2023-08-20T08:03:17;23.69;65.17
66522;SHT31;53349;53.538;8.584;2023-08-20T08:05:52;23.59;65.23
66522;SHT31;53349;53.538;8.584;2023-08-20T08:08:18;23.55;65.01
66522;SHT31;53349;53.538;8.584;2023-08-20T08:10:48;23.49;65.37
66522;SHT31;53349;53.538;8.584;2023-08-20T08:13:22;23.44;65.42
66522;SHT31;53349;53.538;8.584;2023-08-20T08:15:49;23.41;66.02
66522;SHT31;53349;53.538;8.584;2023-08-20T08:18:14;23.42;65.84
66522;SHT31;53349;53.538;8.584;2023-08-20T08:20:40;23.42;65.80
66522;SHT31;53349;53.538;8.584;2023-08-20T08:23:06;23.42;65.93
66522;SHT31;53349;53.538;8.584;2023-08-20T08:25:33;23.38;65.93
66522;SHT31;53349;53.538;8.584;2023-08-20T08:27:58;23.39;65.62
66522;SHT31;53349;53.538;8.584;2023-08-20T08:30:24;23.45;65.54
66522;SHT31;53349;53.538;8.584;2023-08-20T08:32:51;23.59;65.63
66522;SHT31;53349;53.538;8.584;2023-08-20T08:35:17;23.55;65.12
66522;SHT31;53349;53.538;8.584;2023-08-20T08:37:42;23.61;64.50
66522;SHT31;53349;53.538;8.584;2023-08-20T08:40:14;23.68;65.05
66522;SHT31;53349;53.538;8.584;2023-08-20T08:42:41;23.73;64.90
66522;SHT31;53349;53.538;8.584;2023-08-20T08:45:07;23.73;65.26
66522;SHT31;53349;53.538;8.584;2023-08-20T08:47:38;23.76;64.65
66522;SHT31;53349;53.538;8.584;2023-08-20T08:50:05;23.87;64.68
66522;SHT31;53349;53.538;8.584;2023-08-20T08:52:31;23.85;64.61
66522;SHT31;53349;53.538;8.584;2023-08-20T08:54:59;24.00;64.63
66522;SHT31;53349;53.538;8.584;2023-08-20T08:57:25;24.21;64.39
66522;SHT31;53349;53.538;8.584;2023-08-20T08:59:51;24.43;63.85
66522;SHT31;53349;53.538;8.584;2023-08-20T09:02:17;24.68;62.87
66522;SHT31;53349;53.538;8.584;2023-08-20T09:04:43;24.95;61.89
66522;SHT31;53349;53.538;8.584;2023-08-20T09:07:13;25.14;60.27
66522;SHT31;53349;53.538;8.584;2023-08-20T09:09:46;25.32;60.84
66522;SHT31;53349;53.538;8.584;2023-08-20T09:12:19;25.54;60.03
66522;SHT31;53349;53.538;8.584;2023-08-20T09:14:47;25.76;59.60
66522;SHT31;53349;53.538;8.584;2023-08-20T09:17:14;25.96;59.35
66522;SHT31;53349;53.538;8.584;2023-08-20T09:19:43;26.21;56.48
66522;SHT31;53349;53.538;8.584;2023-08-20T09:22:08;26.49;57.55
66522;SHT31;53349;53.538;8.584;2023-08-20T09:27:04;26.93;55.99
66522;SHT31;53349;53.538;8.584;2023-08-20T09:29:32;27.04;56.00
66522;SHT31;53349;53.538;8.584;2023-08-20T09:32:02;27.18;55.20
66522;SHT31;53349;53.538;8.584;2023-08-20T09:34:36;27.11;55.56
66522;SHT31;53349;53.538;8.584;2023-08-20T09:37:02;26.90;55.56
66522;SHT31;53349;53.538;8.584;2023-08-20T09:39:27;26.83;55.56
66522;SHT31;53349;53.538;8.584;2023-08-20T09:41:53;26.82;55.55
66522;SHT31;53349;53.538;8.584;2023-08-20T09:44:20;26.55;56.01
66522;SHT31;53349;53.538;8.584;2023-08-20T09:46:47;26.95;55.31
66522;SHT31;53349;53.538;8.584;2023-08-20T09:49:14;26.86;55.37
66522;SHT31;53349;53.538;8.584;2023-08-20T09:51:43;27.10;54.79
66522;SHT31;53349;53.538;8.584;2023-08-20T09:54:23;27.34;53.43
66522;SHT31;53349;53.538;8.584;2023-08-20T09:56:54;27.58;53.15
66522;SHT31;53349;53.538;8.584;2023-08-20T09:59:24;27.71;52.45
66522;SHT31;53349;53.538;8.584;2023-08-20T10:02:21;27.94;52.46
66522;SHT31;53349;53.538;8.584;2023-08-20T10:04:47;28.23;51.31
66522;SHT31;53349;53.538;8.584;2023-08-20T10:07:14;28.64;49.41
66522;SHT31;53349;53.538;8.584;2023-08-20T10:09:40;28.87;49.36
66522;SHT31;53349;53.538;8.584;2023-08-20T10:12:07;28.80;49.39
66522;SHT31;53349;53.538;8.584;2023-08-20T10:14:34;28.68;50.75
66522;SHT31;53349;53.538;8.584;2023-08-20T10:17:06;29.03;50.81
66522;SHT31;53349;53.538;8.584;2023-08-20T10:19:37;28.94;50.81
66522;SHT31;53349;53.538;8.584;2023-08-20T10:22:07;28.49;51.66
66522;SHT31;53349;53.538;8.584;2023-08-20T10:24:52;27.81;53.07
66522;SHT31;53349;53.538;8.584;2023-08-20T10:27:25;27.26;53.94
66522;SHT31;53349;53.538;8.584;2023-08-20T10:29:52;27.22;53.87
66522;SHT31;53349;53.538;8.584;2023-08-20T10:32:18;27.41;53.50
66522;SHT31;53349;53.538;8.584;2023-08-20T10:34:50;28.01;51.50
66522;SHT31;53349;53.538;8.584;2023-08-20T10:37:27;28.57;49.71
66522;SHT31;53349;53.538;8.584;2023-08-20T10:39:56;28.45;50.02
66522;SHT31;53349;53.538;8.584;2023-08-20T10:42:28;28.61;50.60
66522;SHT31;53349;53.538;8.584;2023-08-20T10:45:00;28.91;49.24
66522;SHT31;53349;53.538;8.584;2023-08-20T10:48:02;29.24;48.71
66522;SHT31;53349;53.538;8.584;2023-08-20T10:50:21;29.29;48.16
66522;SHT31;53349;53.538;8.584;2023-08-20T10:52:48;29.39;47.07
66522;SHT31;53349;53.538;8.584;2023-08-20T10:55:15;29.59;46.93
66522;SHT31;53349;53.538;8.584;2023-08-20T10:57:48;29.17;48.42
66522;SHT31;53349;53.538;8.584;2023-08-20T11:00:19;28.98;49.08
66522;SHT31;53349;53.538;8.584;2023-08-20T11:02:44;29.08;49.18
66522;SHT31;53349;53.538;8.584;2023-08-20T11:05:17;29.35;48.04
66522;SHT31;53349;53.538;8.584;2023-08-20T11:07:50;29.32;47.32
66522;SHT31;53349;53.538;8.584;2023-08-20T11:10:16;29.21;48.01
66522;SHT31;53349;53.538;8.584;2023-08-20T11:12:45;29.17;48.11
66522;SHT31;53349;53.538;8.584;2023-08-20T11:15:11;28.96;48.39
66522;SHT31;53349;53.538;8.584;2023-08-20T11:17:49;28.81;48.42
66522;SHT31;53349;53.538;8.584;2023-08-20T11:20:15;28.73;48.37
66522;SHT31;53349;53.538;8.584;2023-08-20T11:22:41;28.61;48.35
66522;SHT31;53349;53.538;8.584;2023-08-20T11:25:10;28.49;49.06
66522;SHT31;53349;53.538;8.584;2023-08-20T11:27:40;28.50;49.59
66522;SHT31;53349;53.538;8.584;2023-08-20T11:30:08;28.60;48.76
66522;SHT31;53349;53.538;8.584;2023-08-20T11:32:36;28.59;47.98
66522;SHT31;53349;53.538;8.584;2023-08-20T11:35:02;28.46;47.91
66522;SHT31;53349;53.538;8.584;2023-08-20T11:37:31;28.29;48.03
66522;SHT31;53349;53.538;8.584;2023-08-20T11:39:57;28.10;48.36
66522;SHT31;53349;53.538;8.584;2023-08-20T11:42:24;28.05;48.34
66522;SHT31;53349;53.538;8.584;2023-08-20T11:44:55;27.95;47.51
66522;SHT31;53349;53.538;8.584;2023-08-20T11:47:21;27.92;48.21
66522;SHT31;53349;53.538;8.584;2023-08-20T11:49:47;27.91;48.94
66522;SHT31;53349;53.538;8.584;2023-08-20T11:52:12;27.91;48.73
66522;SHT31;53349;53.538;8.584;2023-08-20T11:54:38;27.88;48.42
66522;SHT31;53349;53.538;8.584;2023-08-20T11:57:06;27.85;48.85
66522;SHT31;53349;53.538;8.584;2023-08-20T11:59:34;27.71;48.96
66522;SHT31;53349;53.538;8.584;2023-08-20T12:02:01;27.71;48.96
66522;SHT31;53349;53.538;8.584;2023-08-20T12:04:29;27.68;50.00
66522;SHT31;53349;53.538;8.584;2023-08-20T12:07:13;27.65;49.60
66522;SHT31;53349;53.538;8.584;2023-08-20T12:09:39;27.62;49.65
66522;SHT31;53349;53.538;8.584;2023-08-20T12:12:06;27.61;49.76
66522;SHT31;53349;53.538;8.584;2023-08-20T12:14:36;27.51;49.59
66522;SHT31;53349;53.538;8.584;2023-08-20T12:17:05;27.58;49.24
66522;SHT31;53349;53.538;8.584;2023-08-20T12:19:33;27.43;50.57
66522;SHT31;53349;53.538;8.584;2023-08-20T12:21:58;27.36;50.74
66522;SHT31;53349;53.538;8.584;2023-08-20T12:24:24;27.31;49.62
66522;SHT31;53349;53.538;8.584;2023-08-20T12:26:52;27.29;49.95
66522;SHT31;53349;53.538;8.584;2023-08-20T12:29:18;27.26;51.00
66522;SHT31;53349;53.538;8.584;2023-08-20T12:31:44;27.33;50.95
66522;SHT31;53349;53.538;8.584;2023-08-20T12:34:09;27.24;50.54
66522;SHT31;53349;53.538;8.584;2023-08-20T12:36:36;27.22;50.98
66522;SHT31;53349;53.538;8.584;2023-08-20T12:39:04;27.11;50.43
66522;SHT31;53349;53.538;8.584;2023-08-20T12:41:31;27.10;51.13
66522;SHT31;53349;53.538;8.584;2023-08-20T12:43:57;26.99;51.16
66522;SHT31;53349;53.538;8.584;2023-08-20T12:46:22;26.99;51.67
66522;SHT31;53349;53.538;8.584;2023-08-20T12:48:48;26.93;52.44
66522;SHT31;53349;53.538;8.584;2023-08-20T12:51:13;26.90;51.40
66522;SHT31;53349;53.538;8.584;2023-08-20T12:53:42;26.85;50.72
66522;SHT31;53349;53.538;8.584;2023-08-20T12:56:07;26.76;51.44
66522;SHT31;53349;53.538;8.584;2023-08-20T12:58:32;26.71;51.38
66522;SHT31;53349;53.538;8.584;2023-08-20T13:00:58;26.68;51.90
66522;SHT31;53349;53.538;8.584;2023-08-20T13:03:24;26.62;51.35
66522;SHT31;53349;53.538;8.584;2023-08-20T13:05:51;26.53;52.43
66522;SHT31;53349;53.538;8.584;2023-08-20T13:08:16;26.60;52.36
66522;SHT31;53349;53.538;8.584;2023-08-20T13:10:46;26.59;52.63
66522;SHT31;53349;53.538;8.584;2023-08-20T13:13:16;26.55;52.37
66522;SHT31;53349;53.538;8.584;2023-08-20T13:15:43;26.52;52.12
66522;SHT31;53349;53.538;8.584;2023-08-20T13:18:09;26.49;51.98
66522;SHT31;53349;53.538;8.584;2023-08-20T13:20:35;26.48;52.52
66522;SHT31;53349;53.538;8.584;2023-08-20T13:23:00;26.45;52.54
66522;SHT31;53349;53.538;8.584;2023-08-20T13:25:26;26.42;52.70
66522;SHT31;53349;53.538;8.584;2023-08-20T13:27:52;26.35;53.65
66522;SHT31;53349;53.538;8.584;2023-08-20T13:30:19;26.32;51.95
66522;SHT31;53349;53.538;8.584;2023-08-20T13:32:44;26.27;51.89
66522;SHT31;53349;53.538;8.584;2023-08-20T13:35:09;26.27;52.75
66522;SHT31;53349;53.538;8.584;2023-08-20T13:37:35;26.27;52.92
66522;SHT31;53349;53.538;8.584;2023-08-20T13:40:01;26.20;52.19
66522;SHT31;53349;53.538;8.584;2023-08-20T13:42:27;26.21;52.67
66522;SHT31;53349;53.538;8.584;2023-08-20T13:44:53;26.17;52.93
66522;SHT31;53349;53.538;8.584;2023-08-20T13:47:19;26.14;52.58
66522;SHT31;53349;53.538;8.584;2023-08-20T13:49:44;26.13;53.05
66522;SHT31;53349;53.538;8.584;2023-08-20T13:52:10;26.24;53.80
66522;SHT31;53349;53.538;8.584;2023-08-20T13:54:36;26.29;54.37
66522;SHT31;53349;53.538;8.584;2023-08-20T13:57:02;26.35;53.69
66522;SHT31;53349;53.538;8.584;2023-08-20T13:59:30;26.39;54.11
66522;SHT31;53349;53.538;8.584;2023-08-20T14:01:56;26.42;54.37
66522;SHT31;53349;53.538;8.584;2023-08-20T14:04:22;26.41;54.56
66522;SHT31;53349;53.538;8.584;2023-08-20T14:06:51;26.38;53.82
66522;SHT31;53349;53.538;8.584;2023-08-20T14:09:20;26.39;53.82
66522;SHT31;53349;53.538;8.584;2023-08-20T14:11:47;26.41;53.83
66522;SHT31;53349;53.538;8.584;2023-08-20T14:14:14;26.37;54.05
66522;SHT31;53349;53.538;8.584;2023-08-20T14:16:42;26.37;54.60
66522;SHT31;53349;53.538;8.584;2023-08-20T14:19:08;26.35;54.37
66522;SHT31;53349;53.538;8.584;2023-08-20T14:21:36;26.29;54.50
66522;SHT31;53349;53.538;8.584;2023-08-20T14:24:03;26.31;55.09
66522;SHT31;53349;53.538;8.584;2023-08-20T14:26:28;26.29;55.45
66522;SHT31;53349;53.538;8.584;2023-08-20T14:28:54;26.32;55.85
66522;SHT31;53349;53.538;8.584;2023-08-20T14:31:19;26.32;57.21
66522;SHT31;53349;53.538;8.584;2023-08-20T14:33:47;26.34;58.41
66522;SHT31;53349;53.538;8.584;2023-08-20T14:36:13;26.29;58.00
66522;SHT31;53349;53.538;8.584;2023-08-20T14:38:40;26.29;57.93
66522;SHT31;53349;53.538;8.584;2023-08-20T14:41:08;26.22;58.11
66522;SHT31;53349;53.538;8.584;2023-08-20T14:43:33;26.24;58.14
66522;SHT31;53349;53.538;8.584;2023-08-20T14:45:59;26.21;58.58
66522;SHT31;53349;53.538;8.584;2023-08-20T14:48:26;26.22;59.26
66522;SHT31;53349;53.538;8.584;2023-08-20T14:50:51;26.22;59.50
66522;SHT31;53349;53.538;8.584;2023-08-20T14:53:18;26.18;59.72
66522;SHT31;53349;53.538;8.584;2023-08-20T14:55:44;26.11;59.51
66522;SHT31;53349;53.538;8.584;2023-08-20T14:58:10;26.05;59.75
66522;SHT31;53349;53.538;8.584;2023-08-20T15:00:35;26.08;59.69
66522;SHT31;53349;53.538;8.584;2023-08-20T15:03:01;26.05;59.70
66522;SHT31;53349;53.538;8.584;2023-08-20T15:05:27;25.98;59.88
66522;SHT31;53349;53.538;8.584;2023-08-20T15:07:53;25.97;59.66
66522;SHT31;53349;53.538;8.584;2023-08-20T15:10:19;25.96;59.24
66522;SHT31;53349;53.538;8.584;2023-08-20T15:12:44;25.91;59.09
66522;SHT31;53349;53.538;8.584;2023-08-20T15:15:11;25.80;59.46
66522;SHT31;53349;53.538;8.584;2023-08-20T15:17:40;25.83;59.30
66522;SHT31;53349;53.538;8.584;2023-08-20T15:20:08;25.80;58.89
66522;SHT31;53349;53.538;8.584;2023-08-20T15:22:34;25.73;58.87
66522;SHT31;53349;53.538;8.584;2023-08-20T15:25:00;25.71;58.83
66522;SHT31;53349;53.538;8.584;2023-08-20T15:27:25;25.69;58.40
66522;SHT31;53349;53.538;8.584;2023-08-20T15:29:51;25.66;58.33
66522;SHT31;53349;53.538;8.584;2023-08-20T15:32:17;25.59;58.51
66522;SHT31;53349;53.538;8.584;2023-08-20T15:34:42;25.51;58.55
66522;SHT31;53349;53.538;8.584;2023-08-20T15:37:09;25.51;58.40
66522;SHT31;53349;53.538;8.584;2023-08-20T15:39:35;25.53;58.54
66522;SHT31;53349;53.538;8.584;2023-08-20T15:42:03;25.50;58.59